Time,TemperatureF,DewpointF,PressureIn,WindDirection,WindDirectionDegrees,WindSpeedMPH,WindSpeedGustMPH,Humidity,HourlyPrecipIn,Conditions,Clouds,dailyrainin,SoftwareType,DateUTC
2013-02-21 00:03:00,24.7,12.0,29.86,WSW,257,5.0,11.0,59,0.00,,,0.00,weatherlink.com 1.10,2013-02-21 05:03:00,
2013-02-21 00:18:00,24.6,12.0,29.86,WSW,238,4.0,8.0,59,0.00,,,0.00,weatherlink.com 1.10,2013-02-21 05:18:00,
2013-02-21 00:33:00,24.3,12.0,29.86,West,271,4.0,7.0,60,0.00,,,0.00,weatherlink.com 1.10,2013-02-21 05:33:00,
2013-02-21 00:48:00,24.3,12.0,29.86,WNW,285,4.0,8.0,61,0.00,,,0.00,weatherlink.com 1.10,2013-02-21 05:48:00,
2013-02-21 01:18:00,24.5,13.0,29.86,West,271,8.0,11.0,61,0.00,,,0.00,weatherlink.com 1.10,2013-02-21 06:18:00,
2013-02-21 01:34:00,24.6,13.0,29.86,WSW,257,3.0,8.0,61,0.00,,,0.00,weatherlink.com 1.10,2013-02-21 06:34:00,
2013-02-21 01:48:00,24.5,13.0,29.85,WSW,242,2.0,11.0,61,0.00,,,0.00,weatherlink.com 1.10,2013-02-21 06:48:00,
2013-02-21 02:03:00,24.4,13.0,29.85,WSW,243,5.0,11.0,62,0.00,,,0.00,weatherlink.com 1.10,2013-02-21 07:03:00,
2013-02-21 02:19:00,24.5,13.0,29.85,West,274,7.0,15.0,62,0.00,,,0.00,weatherlink.com 1.10,2013-02-21 07:19:00,
2013-02-21 02:34:00,24.3,13.0,29.85,SW,225,10.0,13.0,63,0.00,,,0.00,weatherlink.com 1.10,2013-02-21 07:34:00,
2013-02-21 03:19:00,24.0,13.0,29.86,West,277,3.0,9.0,63,0.00,,,0.00,weatherlink.com 1.10,2013-02-21 08:19:00,
2013-02-21 03:34:00,23.6,13.0,29.86,WSW,253,5.0,7.0,65,0.00,,,0.00,weatherlink.com 1.10,2013-02-21 08:34:00,
2013-02-21 03:49:00,23.4,13.0,29.86,WSW,248,4.0,7.0,65,0.00,,,0.00,weatherlink.com 1.10,2013-02-21 08:49:00,
2013-02-21 04:04:00,23.5,13.0,29.87,West,276,3.0,10.0,65,0.00,,,0.00,weatherlink.com 1.10,2013-02-21 09:04:00,
2013-02-21 04:19:00,23.6,14.0,29.87,West,260,6.0,10.0,66,0.00,,,0.00,weatherlink.com 1.10,2013-02-21 09:19:00,
2013-02-21 04:34:00,23.8,14.0,29.88,WSW,238,5.0,12.0,65,0.00,,,0.00,weatherlink.com 1.10,2013-02-21 09:34:00,
2013-02-21 04:49:00,23.6,14.0,29.87,WSW,255,6.0,12.0,66,0.00,,,0.00,weatherlink.com 1.10,2013-02-21 09:49:00,
2013-02-21 05:04:00,23.6,14.0,29.88,West,263,5.0,11.0,66,0.00,,,0.00,weatherlink.com 1.10,2013-02-21 10:04:00,
2013-02-21 05:19:00,23.6,14.0,29.88,WSW,252,6.0,11.0,66,0.00,,,0.00,weatherlink.com 1.10,2013-02-21 10:19:00,
2013-02-21 05:34:00,23.6,14.0,29.87,WSW,255,6.0,9.0,67,0.00,,,0.00,weatherlink.com 1.10,2013-02-21 10:34:00,
2013-02-21 05:49:00,23.7,14.0,29.87,West,277,4.0,13.0,66,0.00,,,0.00,weatherlink.com 1.10,2013-02-21 10:49:00,
2013-02-21 06:04:00,23.8,14.0,29.87,West,276,4.0,17.0,66,0.00,,,0.00,weatherlink.com 1.10,2013-02-21 11:04:00,
2013-02-21 06:19:00,23.7,14.0,29.88,WSW,238,5.0,12.0,66,0.00,,,0.00,weatherlink.com 1.10,2013-02-21 11:19:00,
2013-02-21 06:34:00,23.5,14.0,29.88,West,273,7.0,15.0,66,0.00,,,0.00,weatherlink.com 1.10,2013-02-21 11:34:00,
2013-02-21 06:49:00,23.5,14.0,29.88,WSW,257,4.0,14.0,66,0.00,,,0.00,weatherlink.com 1.10,2013-02-21 11:49:00,
2013-02-21 07:04:00,23.6,14.0,29.88,West,277,9.0,12.0,66,0.00,,,0.00,weatherlink.com 1.10,2013-02-21 12:04:00,
2013-02-21 07:19:00,23.7,14.0,29.88,West,262,6.0,14.0,66,0.00,,,0.00,weatherlink.com 1.10,2013-02-21 12:19:00,
2013-02-21 07:34:00,24.0,14.0,29.89,West,264,5.0,13.0,65,0.00,,,0.00,weatherlink.com 1.10,2013-02-21 12:34:00,
2013-02-21 07:50:00,24.5,14.0,29.89,West,262,5.0,12.0,65,0.00,,,0.00,weatherlink.com 1.10,2013-02-21 12:50:00,
2013-02-21 08:05:00,24.4,14.0,29.89,West,274,7.0,10.0,65,0.00,,,0.00,weatherlink.com 1.10,2013-02-21 13:05:00,
2013-02-21 08:19:00,24.6,14.0,29.89,WNW,292,5.0,12.0,64,0.00,,,0.00,weatherlink.com 1.10,2013-02-21 13:19:00,
2013-02-21 08:34:00,24.8,14.0,29.89,West,278,3.0,15.0,64,0.00,,,0.00,weatherlink.com 1.10,2013-02-21 13:34:00,
2013-02-21 08:50:00,25.4,15.0,29.89,West,274,5.0,13.0,64,0.00,,,0.00,weatherlink.com 1.10,2013-02-21 13:50:00,
2013-02-21 09:05:00,25.7,14.0,29.88,West,276,8.0,13.0,62,0.00,,,0.00,weatherlink.com 1.10,2013-02-21 14:05:00,
2013-02-21 09:19:00,26.4,14.0,29.88,West,281,5.0,15.0,61,0.00,,,0.00,weatherlink.com 1.10,2013-02-21 14:19:00,
2013-02-21 09:35:00,26.3,14.0,29.88,West,259,6.0,12.0,59,0.00,,,0.00,weatherlink.com 1.10,2013-02-21 14:35:00,
2013-02-21 09:50:00,27.2,14.0,29.88,WNW,293,10.0,16.0,58,0.00,,,0.00,weatherlink.com 1.10,2013-02-21 14:50:00,
2013-02-21 10:05:00,27.8,14.0,29.87,West,266,7.0,14.0,56,0.00,,,0.00,weatherlink.com 1.10,2013-02-21 15:05:00,
2013-02-21 10:20:00,28.8,14.0,29.86,NW,309,8.0,16.0,55,0.00,,,0.00,weatherlink.com 1.10,2013-02-21 15:20:00,
2013-02-21 10:35:00,29.3,14.0,29.86,West,271,7.0,17.0,53,0.00,,,0.00,weatherlink.com 1.10,2013-02-21 15:35:00,
2013-02-21 10:50:00,29.7,13.0,29.86,West,266,7.0,19.0,51,0.00,,,0.00,weatherlink.com 1.10,2013-02-21 15:50:00,
2013-02-21 11:05:00,30.4,14.0,29.85,WNW,292,5.0,15.0,50,0.00,,,0.00,weatherlink.com 1.10,2013-02-21 16:05:00,
2013-02-21 11:20:00,30.6,14.0,29.85,West,281,5.0,22.0,50,0.00,,,0.00,weatherlink.com 1.10,2013-02-21 16:20:00,
2013-02-21 11:35:00,30.9,14.0,29.85,NW,317,2.0,22.0,49,0.00,,,0.00,weatherlink.com 1.10,2013-02-21 16:35:00,
2013-02-21 11:50:00,31.3,14.0,29.85,West,269,8.0,16.0,48,0.00,,,0.00,weatherlink.com 1.10,2013-02-21 16:50:00,
2013-02-21 12:05:00,31.8,14.0,29.85,WSW,255,11.0,17.0,49,0.00,,,0.00,weatherlink.com 1.10,2013-02-21 17:05:00,
2013-02-21 12:20:00,32.1,15.0,29.85,WNW,290,16.0,20.0,50,0.00,,,0.00,weatherlink.com 1.10,2013-02-21 17:20:00,
2013-02-21 12:35:00,32.1,15.0,29.84,NNW,338,6.0,17.0,50,0.00,,,0.00,weatherlink.com 1.10,2013-02-21 17:35:00,
2013-02-21 12:50:00,32.5,16.0,29.84,WNW,295,8.0,18.0,51,0.00,,,0.00,weatherlink.com 1.10,2013-02-21 17:50:00,
2013-02-21 13:05:00,32.2,15.0,29.84,West,277,8.0,19.0,50,0.00,,,0.00,weatherlink.com 1.10,2013-02-21 18:05:00,
2013-02-21 13:20:00,32.0,15.0,29.84,WNW,287,9.0,23.0,49,0.00,,,0.00,weatherlink.com 1.10,2013-02-21 18:20:00,
2013-02-21 13:35:00,32.4,15.0,29.83,NNW,330,9.0,18.0,49,0.00,,,0.00,weatherlink.com 1.10,2013-02-21 18:35:00,
2013-02-21 13:50:00,32.8,15.0,29.83,WSW,242,4.0,17.0,48,0.00,,,0.00,weatherlink.com 1.10,2013-02-21 18:50:00,
2013-02-21 14:05:00,32.9,15.0,29.84,West,261,13.0,15.0,48,0.00,,,0.00,weatherlink.com 1.10,2013-02-21 19:05:00,
2013-02-21 14:20:00,33.3,15.0,29.84,WSW,255,20.0,20.0,47,0.00,,,0.00,weatherlink.com 1.10,2013-02-21 19:20:00,
2013-02-21 14:35:00,33.6,16.0,29.85,WNW,287,2.0,13.0,48,0.00,,,0.00,weatherlink.com 1.10,2013-02-21 19:35:00,
2013-02-21 14:50:00,33.1,15.0,29.86,WSW,252,8.0,17.0,47,0.00,,,0.00,weatherlink.com 1.10,2013-02-21 19:50:00,
2013-02-21 15:20:00,32.4,15.0,29.87,WNW,284,6.0,17.0,48,0.00,,,0.00,weatherlink.com 1.10,2013-02-21 20:20:00,
2013-02-21 15:35:00,32.3,14.0,29.88,West,278,4.0,15.0,48,0.00,,,0.00,weatherlink.com 1.10,2013-02-21 20:35:00,
2013-02-21 15:51:00,32.3,15.0,29.88,ENE,73,3.0,16.0,49,0.00,,,0.00,weatherlink.com 1.10,2013-02-21 20:51:00,
2013-02-21 16:05:00,32.0,15.0,29.89,NNE,16,3.0,13.0,49,0.00,,,0.00,weatherlink.com 1.10,2013-02-21 21:05:00,
2013-02-21 16:20:00,31.3,14.0,29.90,West,281,3.0,12.0,49,0.00,,,0.00,weatherlink.com 1.10,2013-02-21 21:20:00,
2013-02-21 16:35:00,30.3,14.0,29.92,NW,326,6.0,11.0,51,0.00,,,0.00,weatherlink.com 1.10,2013-02-21 21:35:00,
2013-02-21 16:50:00,30.1,13.0,29.93,West,274,8.0,20.0,50,0.00,,,0.00,weatherlink.com 1.10,2013-02-21 21:50:00,
2013-02-21 17:05:00,28.9,13.0,29.94,NW,312,5.0,16.0,52,0.00,,,0.00,weatherlink.com 1.10,2013-02-21 22:05:00,
2013-02-21 17:20:00,28.4,13.0,29.95,West,262,8.0,19.0,53,0.00,,,0.00,weatherlink.com 1.10,2013-02-21 22:20:00,
2013-02-21 17:35:00,28.0,13.0,29.97,NNW,335,3.0,15.0,53,0.00,,,0.00,weatherlink.com 1.10,2013-02-21 22:35:00,
2013-02-21 17:50:00,27.8,13.0,29.98,NW,317,5.0,13.0,53,0.00,,,0.00,weatherlink.com 1.10,2013-02-21 22:50:00,
2013-02-21 18:05:00,27.3,13.0,29.99,West,274,13.0,15.0,54,0.00,,,0.00,weatherlink.com 1.10,2013-02-21 23:05:00,
2013-02-21 18:21:00,26.6,12.0,30.00,West,276,8.0,20.0,55,0.00,,,0.00,weatherlink.com 1.10,2013-02-21 23:21:00,
2013-02-21 18:36:00,26.1,12.0,30.01,West,280,8.0,15.0,56,0.00,,,0.00,weatherlink.com 1.10,2013-02-21 23:36:00,
2013-02-21 18:51:00,25.7,12.0,30.02,NNW,346,1.0,17.0,56,0.00,,,0.00,weatherlink.com 1.10,2013-02-21 23:51:00,
2013-02-21 19:06:00,25.2,12.0,30.02,North,350,6.0,12.0,57,0.00,,,0.00,weatherlink.com 1.10,2013-02-22 00:06:00,
2013-02-21 19:21:00,25.0,12.0,30.04,WSW,245,6.0,12.0,57,0.00,,,0.00,weatherlink.com 1.10,2013-02-22 00:21:00,
2013-02-21 19:36:00,24.8,12.0,30.04,NW,319,7.0,17.0,58,0.00,,,0.00,weatherlink.com 1.10,2013-02-22 00:36:00,
2013-02-21 19:51:00,24.6,12.0,30.05,North,359,6.0,10.0,58,0.00,,,0.00,weatherlink.com 1.10,2013-02-22 00:51:00,
2013-02-21 20:06:00,24.5,12.0,30.06,NE,37,5.0,12.0,59,0.00,,,0.00,weatherlink.com 1.10,2013-02-22 01:06:00,
2013-02-21 20:21:00,24.6,12.0,30.07,WNW,295,2.0,11.0,59,0.00,,,0.00,weatherlink.com 1.10,2013-02-22 01:21:00,
2013-02-21 20:36:00,24.7,12.0,30.09,WNW,302,2.0,10.0,60,0.00,,,0.00,weatherlink.com 1.10,2013-02-22 01:36:00,
2013-02-21 20:51:00,24.6,13.0,30.10,NW,311,5.0,10.0,61,0.00,,,0.00,weatherlink.com 1.10,2013-02-22 01:51:00,
2013-02-21 21:06:00,24.5,13.0,30.10,WNW,295,8.0,10.0,61,0.00,,,0.00,weatherlink.com 1.10,2013-02-22 02:06:00,
2013-02-21 21:21:00,24.5,13.0,30.10,NW,319,4.0,11.0,62,0.00,,,0.00,weatherlink.com 1.10,2013-02-22 02:21:00,
2013-02-21 21:36:00,24.6,14.0,30.12,NW,320,4.0,9.0,63,0.00,,,0.00,weatherlink.com 1.10,2013-02-22 02:36:00,
2013-02-21 21:51:00,24.7,14.0,30.13,WNW,297,4.0,10.0,63,0.00,,,0.00,weatherlink.com 1.10,2013-02-22 02:51:00,
2013-02-21 22:06:00,24.7,14.0,30.13,West,266,5.0,9.0,64,0.00,,,0.00,weatherlink.com 1.10,2013-02-22 03:06:00,
2013-02-21 22:21:00,24.8,14.0,30.15,West,263,4.0,13.0,64,0.00,,,0.00,weatherlink.com 1.10,2013-02-22 03:21:00,
2013-02-21 22:36:00,24.9,14.0,30.15,West,281,3.0,14.0,64,0.00,,,0.00,weatherlink.com 1.10,2013-02-22 03:36:00,
2013-02-21 22:51:00,24.8,15.0,30.16,WNW,302,3.0,11.0,65,0.00,,,0.00,weatherlink.com 1.10,2013-02-22 03:51:00,
2013-02-21 23:06:00,25.1,15.0,30.18,NW,314,2.0,14.0,66,0.00,,,0.00,weatherlink.com 1.10,2013-02-22 04:06:00,
2013-02-21 23:22:00,25.2,15.0,30.18,NW,305,4.0,11.0,66,0.00,,,0.00,weatherlink.com 1.10,2013-02-22 04:22:00,
2013-02-21 23:36:00,25.3,16.0,30.20,NNW,333,5.0,11.0,67,0.00,,,0.00,weatherlink.com 1.10,2013-02-22 04:36:00,
2013-02-21 23:52:00,25.3,16.0,30.20,North,354,3.0,14.0,67,0.00,,,0.00,weatherlink.com 1.10,2013-02-22 04:52:00,